Time;durP1;ratioP1;P1;durP2;ratioP2;P2;SDS_P1;SDS_P2;PMS_P1;PMS_P2;Temp;Humidity;BMP_temperature;BMP_pressure;BME280_temperature;BME280_humidity;BME280_pressure;Samples;Min_cycle;Max_cycle;Signal;HPM_P1;HPM_P2
2021/12/15 00:02:12;;;;;;;0.40;0.30;;;;;;;8.75;100.00;102218.00;5052951;28;20536;-69
2021/12/15 00:04:39;;;;;;;0.40;0.30;;;;;;;8.75;100.00;102228.00;5053207;28;20837;-69
2021/12/15 00:07:06;;;;;;;0.40;0.30;;;;;;;8.71;100.00;102232.25;5052534;28;21019;-69
2021/12/15 00:09:34;;;;;;;0.40;0.30;;;;;;;8.69;100.00;102224.41;5052857;28;20875;-69
2021/12/15 00:12:03;;;;;;;0.40;0.30;;;;;;;8.68;100.00;102222.78;5052531;28;20864;-69
2021/12/15 00:14:31;;;;;;;0.40;0.40;;;;;;;8.69;100.00;102219.00;5052561;28;20451;-69
2021/12/15 00:16:58;;;;;;;0.40;0.30;;;;;;;8.68;100.00;102227.38;5052852;28;20449;-69
2021/12/15 00:19:27;;;;;;;0.40;0.30;;;;;;;8.71;100.00;102222.25;5052495;28;21029;-69
2021/12/15 00:21:54;;;;;;;0.87;0.87;;;;;;;8.70;100.00;102217.94;5052435;28;20442;-69
2021/12/15 00:24:20;;;;;;;1.40;1.30;;;;;;;8.65;100.00;102228.66;5052788;28;20546;-69
2021/12/15 00:26:49;;;;;;;0.40;0.30;;;;;;;8.68;100.00;102228.19;5052671;28;20482;-69
2021/12/15 00:29:15;;;;;;;5.63;5.20;;;;;;;8.69;100.00;102223.59;5052622;28;20462;-69
2021/12/15 00:31:44;;;;;;;0.40;0.30;;;;;;;8.69;100.00;102224.41;5052384;28;20500;-69
2021/12/15 00:34:11;;;;;;;0.40;0.30;;;;;;;8.70;100.00;102219.81;5052358;28;20450;-69
2021/12/15 00:36:39;;;;;;;0.50;0.30;;;;;;;8.70;100.00;102220.63;5052489;28;20446;-69
2021/12/15 00:39:07;;;;;;;1.43;1.33;;;;;;;8.65;100.00;102217.03;5052498;28;20489;-69
2021/12/15 00:41:34;;;;;;;0.40;0.30;;;;;;;8.66;100.00;102216.78;5052607;28;20473;-69
2021/12/15 00:44:02;;;;;;;0.60;0.60;;;;;;;8.66;100.00;102213.28;5052553;28;20495;-69
2021/12/15 00:46:29;;;;;;;0.50;0.50;;;;;;;8.68;100.00;102221.97;5052438;28;20482;-69
2021/12/15 00:48:57;;;;;;;0.40;0.30;;;;;;;8.67;100.00;102226.53;5053052;28;20504;-69
2021/12/15 00:51:24;;;;;;;0.40;0.30;;;;;;;8.68;100.00;102222.78;5056147;28;20434;-69
2021/12/15 00:53:51;;;;;;;0.40;0.27;;;;;;;8.68;100.00;102230.06;5056064;28;20507;-69
2021/12/15 00:56:18;;;;;;;0.40;0.30;;;;;;;8.67;100.00;102225.69;5056221;28;20815;-69
2021/12/15 00:58:46;;;;;;;6.00;5.50;;;;;;;8.70;100.00;102236.84;5055903;28;20434;-69
2021/12/15 01:01:14;;;;;;;0.40;0.30;;;;;;;8.73;100.00;102233.66;5055587;28;20927;-69
2021/12/15 01:03:41;;;;;;;0.40;0.30;;;;;;;8.77;100.00;102242.09;5055890;28;20500;-69
2021/12/15 01:06:11;;;;;;;0.40;0.30;;;;;;;8.73;100.00;102240.94;5055520;28;20446;-69
2021/12/15 01:08:43;;;;;;;0.40;0.30;;;;;;;8.73;100.00;102240.94;5055752;28;20555;-69
2021/12/15 01:11:21;;;;;;;4.10;3.70;;;;;;;8.69;100.00;102246.00;5055313;28;20480;-69
2021/12/15 01:22:13;;;;;;;0.60;0.60;;;;;;;8.68;100.00;102240.88;5055318;28;20406;-68
2021/12/15 01:24:39;;;;;;;0.40;0.30;;;;;;;8.70;100.00;102244.13;5055220;28;20955;-69
2021/12/15 01:27:06;;;;;;;0.40;0.30;;;;;;;8.63;100.00;102246.97;5055101;28;20536;-69
2021/12/15 01:29:33;;;;;;;0.40;0.30;;;;;;;8.67;100.00;102253.53;5055346;28;20455;-69
2021/12/15 01:32:02;;;;;;;0.97;0.97;;;;;;;8.69;100.00;102251.41;5055360;28;20434;-69
2021/12/15 01:34:28;;;;;;;0.40;0.30;;;;;;;8.70;100.00;102244.94;5055315;28;20511;-69
2021/12/15 01:36:57;;;;;;;0.40;0.30;;;;;;;8.71;100.00;102249.28;5055139;28;20814;-69
2021/12/15 01:39:24;;;;;;;0.40;0.30;;;;;;;8.69;100.00;102242.50;5055237;28;20553;-69
2021/12/15 01:41:54;;;;;;;0.40;0.30;;;;;;;8.72;100.00;102250.09;5055235;28;20434;-69
2021/12/15 01:47:08;;;;;;;1.43;1.33;;;;;;;8.76;100.00;102246.66;5054932;28;20456;-69
2021/12/15 01:49:38;;;;;;;0.40;0.30;;;;;;;8.77;100.00;102250.19;5055026;28;20882;-69
2021/12/15 01:52:10;;;;;;;1.73;1.63;;;;;;;8.73;100.00;102241.75;5055014;28;20415;-69
2021/12/15 01:54:39;;;;;;;0.40;0.30;;;;;;;8.73;100.00;102246.34;5055000;28;20496;-69
2021/12/15 01:57:07;;;;;;;0.40;0.27;;;;;;;8.73;100.00;102241.75;5054884;28;20446;-69
2021/12/15 01:59:34;;;;;;;0.40;0.30;;;;;;;8.73;100.00;102251.75;5054527;28;20990;-69
2021/12/15 02:02:02;;;;;;;0.40;0.30;;;;;;;8.74;100.00;102247.97;5053728;28;20823;-70
2021/12/15 02:04:30;;;;;;;0.40;0.30;;;;;;;8.77;100.00;102244.78;5054783;28;20507;-69
2021/12/15 02:06:57;;;;;;;0.40;0.30;;;;;;;8.77;100.00;102232.09;5054333;28;20899;-69
2021/12/15 02:09:45;;;;;;;0.40;0.30;;;;;;;8.78;100.00;102247.22;5054636;28;20466;-69
2021/12/15 02:12:14;;;;;;;0.40;0.30;;;;;;;8.77;100.00;102240.19;5054699;28;20454;-70
2021/12/15 02:14:41;;;;;;;0.50;0.40;;;;;;;8.77;100.00;102248.31;5054551;28;20529;-69
2021/12/15 02:17:08;;;;;;;0.50;0.40;;;;;;;8.78;100.00;102252.63;5054561;28;20442;-69
2021/12/15 02:19:36;;;;;;;0.70;0.50;;;;;;;8.71;100.00;102248.47;5054122;28;20473;-69
2021/12/15 02:22:05;;;;;;;0.40;0.30;;;;;;;8.78;100.00;102249.13;5054408;28;20500;-69
2021/12/15 02:24:36;;;;;;;0.40;0.30;;;;;;;8.81;100.00;102244.03;5054451;28;20519;-69
2021/12/15 02:27:04;;;;;;;0.40;0.37;;;;;;;8.83;100.00;102249.19;5054292;28;20553;-70
2021/12/15 02:29:37;;;;;;;0.40;0.30;;;;;;;8.85;100.00;102247.03;5053819;28;20477;-69
2021/12/15 02:32:13;;;;;;;0.73;0.73;;;;;;;8.83;100.00;102241.91;5054252;28;20426;-69
2021/12/15 02:37:28;;;;;;;0.40;0.30;;;;;;;8.82;100.00;102244.84;5028278;28;20809;-70
2021/12/15 02:39:59;;;;;;;0.40;0.30;;;;;;;8.78;100.00;102241.81;5054028;28;20462;-70
2021/12/15 02:42:29;;;;;;;0.40;0.30;;;;;;;8.77;100.00;102237.50;5054066;28;20493;-70
2021/12/15 02:44:57;;;;;;;0.40;0.30;;;;;;;8.78;100.00;102249.13;5053769;28;20422;-70
2021/12/15 02:47:27;;;;;;;0.40;0.30;;;;;;;8.77;100.00;102248.31;5053916;28;20489;-70
2021/12/15 02:49:55;;;;;;;0.40;0.30;;;;;;;8.72;100.00;102253.63;5053596;28;20834;-70
2021/12/15 02:52:23;;;;;;;4.80;1.93;;;;;;;8.74;100.00;102251.50;5053867;28;20437;-70
2021/12/15 02:54:51;;;;;;;0.40;0.30;;;;;;;8.69;100.00;102247.91;5053826;28;20434;-70
2021/12/15 02:57:18;;;;;;;0.40;0.40;;;;;;;8.73;100.00;102255.25;5053815;28;20488;-70
2021/12/15 02:59:51;;;;;;;0.40;0.30;;;;;;;8.77;100.00;102253.72;5053684;28;20826;-69
2021/12/15 03:02:40;;;;;;;0.40;0.30;;;;;;;8.77;100.00;102259.09;5053424;28;20430;-69
2021/12/15 03:05:13;;;;;;;0.97;0.97;;;;;;;8.80;100.00;102263.19;5053724;28;20485;-69
2021/12/15 03:07:46;;;;;;;0.40;0.30;;;;;;;8.76;100.00;102248.53;5053559;28;20470;-69
2021/12/15 03:15:38;;;;;;;0.50;0.40;;;;;;;8.81;100.00;102243.22;5053291;28;20585;-69
2021/12/15 03:18:09;;;;;;;0.40;0.30;;;;;;;8.80;100.00;102239.69;5053493;28;20438;-69
2021/12/15 03:20:40;;;;;;;0.40;0.30;;;;;;;8.74;100.00;102237.16;5053336;28;20466;-69
2021/12/15 03:23:11;;;;;;;0.40;0.30;;;;;;;8.77;100.00;102242.91;5053106;28;20430;-69
2021/12/15 03:25:40;;;;;;;0.40;0.30;;;;;;;8.78;100.00;102239.13;5053366;28;20435;-69
2021/12/15 03:33:44;;;;;;;0.40;0.30;;;;;;;8.75;100.00;102241.50;5053132;28;20541;-69
2021/12/15 03:36:22;;;;;;;0.40;0.30;;;;;;;8.75;100.00;102238.78;5053221;28;20529;-70
2021/12/15 03:38:49;;;;;;;0.40;0.30;;;;;;;8.73;100.00;102236.34;5052765;28;20454;-69
2021/12/15 03:41:18;;;;;;;0.40;0.30;;;;;;;8.69;100.00;102227.09;5053135;28;20508;-69
2021/12/15 03:43:45;;;;;;;0.40;0.30;;;;;;;8.71;100.00;102230.38;5053108;28;20442;-69
2021/12/15 03:46:15;;;;;;;0.40;0.30;;;;;;;8.72;100.00;102232.03;5053141;28;20500;-69
2021/12/15 03:48:44;;;;;;;0.40;0.30;;;;;;;8.73;100.00;102239.06;5053014;28;20559;-69
2021/12/15 03:51:13;;;;;;;0.40;0.30;;;;;;;8.73;100.00;102238.25;5053059;28;20438;-69
2021/12/15 03:53:40;;;;;;;0.40;0.30;;;;;;;8.71;100.00;102246.56;5052707;28;20486;-69
2021/12/15 03:56:09;;;;;;;0.40;0.30;;;;;;;8.73;100.00;102236.34;5052972;28;20542;-69
2021/12/15 03:58:38;;;;;;;0.40;0.30;;;;;;;8.75;100.00;102236.91;5053018;28;20480;-69
2021/12/15 04:01:09;;;;;;;0.40;0.30;;;;;;;8.77;100.00;102247.50;5052625;28;20978;-69
2021/12/15 04:03:39;;;;;;;10.63;8.33;;;;;;;8.80;100.00;102250.50;5052957;28;20487;-69
2021/12/15 04:06:09;;;;;;;0.40;0.30;;;;;;;8.81;100.00;102251.34;5053274;28;20450;-70
2021/12/15 04:08:37;;;;;;;0.40;0.30;;;;;;;8.77;100.00;102247.50;5052896;28;20880;-69
2021/12/15 04:11:06;;;;;;;0.40;0.30;;;;;;;8.75;100.00;102244.19;5052795;28;20458;-69
2021/12/15 04:13:33;;;;;;;0.40;0.30;;;;;;;8.74;100.00;102248.78;5052870;28;20542;-69
2021/12/15 04:16:07;;;;;;;0.40;0.30;;;;;;;8.71;100.00;102243.06;5052888;28;20488;-69
2021/12/15 04:18:35;;;;;;;0.40;0.30;;;;;;;8.71;100.00;102235.75;5052841;28;20429;-69
2021/12/15 04:21:03;;;;;;;0.40;0.30;;;;;;;8.66;100.00;102230.28;5052450;28;21046;-69
2021/12/15 04:23:29;;;;;;;0.40;0.30;;;;;;;8.67;100.00;102233.81;5052808;28;20523;-69
2021/12/15 04:25:58;;;;;;;0.40;0.30;;;;;;;8.67;100.00;102234.63;5056668;28;20484;-69
2021/12/15 04:28:27;;;;;;;0.40;0.30;;;;;;;8.68;100.00;102236.28;5056514;28;20514;-69
2021/12/15 04:30:57;;;;;;;0.40;0.30;;;;;;;8.71;100.00;102240.34;5057521;28;20986;-69
2021/12/15 04:33:31;;;;;;;0.40;0.30;;;;;;;8.69;100.00;102235.22;5056273;28;20960;-69
2021/12/15 04:36:01;;;;;;;0.40;0.30;;;;;;;8.67;100.00;102233.81;5056590;28;20450;-69
2021/12/15 04:38:30;;;;;;;0.40;0.30;;;;;;;8.68;100.00;102230.88;5056083;28;20450;-69
2021/12/15 04:40:58;;;;;;;0.70;0.70;;;;;;;8.69;100.00;102240.63;5056001;28;20970;-69
2021/12/15 04:43:29;;;;;;;0.40;0.30;;;;;;;8.65;100.00;102257.56;5056033;28;20446;-71
2021/12/15 04:45:56;;;;;;;0.40;0.30;;;;;;;8.66;100.00;102248.38;5056307;28;20435;-72
2021/12/15 04:48:23;;;;;;;0.40;0.30;;;;;;;8.68;100.00;102252.50;5056154;28;20586;-68
2021/12/15 04:50:51;;;;;;;0.40;0.30;;;;;;;8.73;100.00;102257.97;5055823;28;20458;-69
2021/12/15 04:53:18;;;;;;;0.40;0.30;;;;;;;8.71;100.00;102265.47;5056130;28;20863;-69
2021/12/15 04:55:45;;;;;;;0.40;0.30;;;;;;;8.71;100.00;102260.06;5055770;28;20446;-69
2021/12/15 04:58:13;;;;;;;0.40;0.30;;;;;;;8.74;100.00;102265.00;5056125;28;20438;-69
2021/12/15 05:00:45;;;;;;;0.50;0.40;;;;;;;8.75;100.00;102269.31;5055918;28;20462;-69
2021/12/15 05:03:12;;;;;;;0.40;0.30;;;;;;;8.76;100.00;102264.75;5056020;28;20488;-69
2021/12/15 05:05:39;;;;;;;0.40;0.30;;;;;;;8.75;100.00;102274.72;5055614;28;20504;-69
2021/12/15 05:08:08;;;;;;;1.03;0.93;;;;;;;8.73;100.00;102274.19;5055454;28;21009;-69
2021/12/15 05:10:35;;;;;;;0.40;0.30;;;;;;;8.72;100.00;102275.25;5055783;28;20515;-69
2021/12/15 05:13:03;;;;;;;2.80;2.50;;;;;;;8.71;100.00;102272.78;5055472;28;20847;-69
2021/12/15 05:15:30;;;;;;;2.00;1.90;;;;;;;8.75;100.00;102271.22;5055777;28;20438;-69
2021/12/15 05:17:57;;;;;;;0.40;0.30;;;;;;;8.72;100.00;102272.53;5055367;28;20441;-69
2021/12/15 05:20:25;;;;;;;0.40;0.30;;;;;;;8.76;100.00;102278.25;5055239;28;20461;-69
2021/12/15 05:22:52;;;;;;;0.40;0.20;;;;;;;8.81;100.00;102287.28;5055617;28;20450;-69
2021/12/15 05:25:20;;;;;;;0.40;0.30;;;;;;;8.77;100.00;102275.31;5055286;28;20485;-69
2021/12/15 05:27:48;;;;;;;0.40;0.30;;;;;;;8.78;100.00;102274.25;5055388;28;20492;-69
2021/12/15 05:30:18;;;;;;;0.40;0.30;;;;;;;8.80;100.00;102276.69;5055344;28;20462;-69
2021/12/15 05:32:45;;;;;;;0.40;0.30;;;;;;;8.82;100.00;102272.69;5055363;28;20491;-69
2021/12/15 05:35:16;;;;;;;0.97;0.97;;;;;;;8.84;100.00;102265.13;5055156;28;20507;-69
2021/12/15 05:37:43;;;;;;;0.40;0.30;;;;;;;8.80;100.00;102264.00;5054943;28;20553;-69
2021/12/15 05:40:11;;;;;;;0.40;0.30;;;;;;;8.78;100.00;102276.13;5054878;28;20458;-69
2021/12/15 05:42:40;;;;;;;0.40;0.30;;;;;;;8.79;100.00;102283.16;5054676;28;20484;-69
2021/12/15 05:45:07;;;;;;;0.40;0.30;;;;;;;8.82;100.00;102283.50;5054558;28;20496;-70
2021/12/15 05:47:35;;;;;;;2.10;1.37;;;;;;;8.83;100.00;102285.13;5054802;28;20472;-69
2021/12/15 05:50:02;;;;;;;0.40;0.30;;;;;;;8.86;100.00;102288.41;5054646;28;20494;-70
2021/12/15 05:52:30;;;;;;;0.40;0.30;;;;;;;8.82;100.00;102288.91;5054470;28;20974;-70
2021/12/15 05:54:58;;;;;;;0.40;0.30;;;;;;;8.82;100.00;102285.38;5054686;28;20441;-70
2021/12/15 05:57:25;;;;;;;1.33;1.23;;;;;;;8.79;100.00;102293.97;5054789;28;20466;-70
2021/12/15 05:59:53;;;;;;;0.40;0.30;;;;;;;8.81;100.00;102292.69;5054546;28;20466;-70
2021/12/15 06:02:20;;;;;;;0.40;0.27;;;;;;;8.82;100.00;102293.50;5054652;28;20446;-70
2021/12/15 06:04:47;;;;;;;1.87;1.70;;;;;;;8.87;100.00;102292.75;5054879;28;20454;-69
2021/12/15 06:07:14;;;;;;;5.60;1.90;;;;;;;8.92;100.00;102295.53;5054450;28;20439;-69
2021/12/15 06:09:41;;;;;;;0.40;0.30;;;;;;;8.98;100.00;102298.03;5053755;28;20500;-70
2021/12/15 06:12:09;;;;;;;0.40;0.30;;;;;;;8.95;100.00;102303.16;5054716;28;20496;-70
2021/12/15 06:14:37;;;;;;;0.40;0.30;;;;;;;8.99;100.00;102302.41;5054619;28;20453;-70
2021/12/15 06:17:07;;;;;;;0.40;0.30;;;;;;;8.96;100.00;102308.28;5054593;28;20442;-70
2021/12/15 06:19:34;;;;;;;0.40;0.30;;;;;;;8.96;100.00;102302.88;5054533;28;20588;-71
2021/12/15 06:22:02;;;;;;;0.40;0.30;;;;;;;8.99;100.00;102310.50;5054211;28;20430;-70
2021/12/15 06:24:29;;;;;;;0.40;0.30;;;;;;;8.99;100.00;102309.69;5054608;28;20825;-71
2021/12/15 06:26:58;;;;;;;0.40;0.20;;;;;;;9.00;100.00;102305.91;5054384;28;20454;-70
2021/12/15 06:29:25;;;;;;;0.40;0.30;;;;;;;9.01;100.00;102304.84;5054212;28;20494;-70
2021/12/15 06:31:52;;;;;;;0.40;0.30;;;;;;;9.00;100.00;102312.13;5054013;28;20454;-70
2021/12/15 06:34:20;;;;;;;0.40;0.30;;;;;;;9.02;100.00;102314.59;5054158;28;20446;-70
2021/12/15 06:36:47;;;;;;;0.40;0.30;;;;;;;9.01;100.00;102311.06;5053819;28;21017;-70
2021/12/15 06:39:14;;;;;;;0.40;0.30;;;;;;;9.02;100.00;102309.19;5053594;28;20516;-72
2021/12/15 06:41:41;;;;;;;0.40;0.30;;;;;;;9.03;100.00;102305.41;5054046;28;20872;-70
2021/12/15 06:44:09;;;;;;;0.40;0.30;;;;;;;9.00;100.00;102311.31;5053790;28;20496;-70
2021/12/15 06:47:17;;;;;;;0.40;0.30;;;;;;;8.97;100.00;102314.50;5053118;28;20453;-70
2021/12/15 06:58:12;;;;;;;0.40;0.30;;;;;;;8.98;100.00;102324.25;4992543;28;20447;-70
2021/12/15 07:00:43;;;;;;;0.40;0.30;;;;;;;8.98;100.00;102313.44;5026107;28;20466;-68
2021/12/15 07:03:11;;;;;;;0.40;0.30;;;;;;;9.01;100.00;102318.34;5053482;28;20513;-73
2021/12/15 07:05:39;;;;;;;0.40;0.30;;;;;;;9.01;100.00;102323.75;5053541;28;20821;-74
2021/12/15 07:08:07;;;;;;;0.40;0.30;;;;;;;8.99;100.00;102315.09;5053137;28;20496;-67
2021/12/15 07:10:37;;;;;;;0.40;0.20;;;;;;;8.98;100.00;102324.25;5053455;28;20474;-69
2021/12/15 07:13:05;;;;;;;0.80;0.80;;;;;;;8.97;100.00;102328.84;5054095;28;20793;-69
2021/12/15 07:15:34;;;;;;;1.13;1.03;;;;;;;8.99;100.00;102331.31;5053501;28;20496;-68
2021/12/15 07:18:04;;;;;;;0.40;0.30;;;;;;;8.99;100.00;102339.41;5053205;28;20945;-69
2021/12/15 07:20:40;;;;;;;0.40;0.30;;;;;;;8.90;100.00;102339.03;5053011;28;20999;-68
2021/12/15 07:23:11;;;;;;;0.40;0.30;;;;;;;8.93;100.00;102332.28;5053483;28;20426;-67
2021/12/15 07:25:41;;;;;;;0.40;0.30;;;;;;;8.92;100.00;102342.28;5053404;28;20427;-67
2021/12/15 07:28:09;;;;;;;0.40;0.30;;;;;;;8.91;100.00;102337.13;5053333;28;20438;-68
2021/12/15 07:30:37;;;;;;;0.40;0.40;;;;;;;8.95;100.00;102332.88;5053230;28;20492;-68
2021/12/15 07:33:05;;;;;;;0.40;0.30;;;;;;;8.95;100.00;102330.16;5053031;28;20484;-68
2021/12/15 07:35:32;;;;;;;0.50;0.30;;;;;;;8.97;100.00;102333.44;5053078;28;20446;-68
2021/12/15 07:37:59;;;;;;;0.40;0.20;;;;;;;8.99;100.00;102337.53;5052894;28;20450;-68
2021/12/15 07:40:27;;;;;;;0.40;0.30;;;;;;;8.94;100.00;102350.13;5053130;28;20863;-68
2021/12/15 07:43:05;;;;;;;0.40;0.20;;;;;;;8.98;100.00;102353.97;5053016;28;20496;-68
2021/12/15 07:45:33;;;;;;;0.40;0.30;;;;;;;8.97;100.00;102350.47;5053163;28;20423;-68
2021/12/15 07:48:02;;;;;;;0.40;0.27;;;;;;;8.99;100.00;102356.47;5053164;28;20500;-68
2021/12/15 07:50:31;;;;;;;2.63;2.50;;;;;;;8.99;100.00;102361.88;5052631;28;20508;-68
2021/12/15 07:52:58;;;;;;;0.40;0.20;;;;;;;8.98;100.00;102359.38;5053004;28;20430;-69
2021/12/15 07:55:26;;;;;;;0.40;0.30;;;;;;;9.02;100.00;102363.22;5052941;28;20591;-68
2021/12/15 07:57:54;;;;;;;0.40;0.30;;;;;;;8.98;100.00;102362.09;5052991;28;20438;-69
2021/12/15 08:00:21;;;;;;;0.40;0.30;;;;;;;9.01;100.00;102353.50;5055711;28;21003;-69
2021/12/15 08:02:48;;;;;;;0.40;0.30;;;;;;;8.97;100.00;102360.47;5057015;28;20485;-68
2021/12/15 08:05:15;;;;;;;0.40;0.30;;;;;;;9.01;100.00;102369.72;5057119;28;20453;-67
2021/12/15 08:07:42;;;;;;;3.93;1.90;;;;;;;9.00;100.00;102362.69;5056694;28;20822;-67
2021/12/15 08:10:15;;;;;;;0.40;0.30;;;;;;;9.01;100.00;102370.53;5056472;28;20493;-68
2021/12/15 08:12:45;;;;;;;0.40;0.20;;;;;;;9.04;100.00;102364.63;5056634;28;20419;-67
2021/12/15 08:15:13;;;;;;;0.40;0.30;;;;;;;9.06;100.00;102375.19;5057074;28;20438;-67
2021/12/15 08:17:42;;;;;;;0.40;0.30;;;;;;;9.07;100.00;102379.53;5056779;28;20446;-68
2021/12/15 08:20:12;;;;;;;0.40;0.20;;;;;;;9.10;100.00;102379.03;5056634;28;20512;-68
2021/12/15 08:22:41;;;;;;;0.40;0.30;;;;;;;9.11;100.00;102377.97;5056072;28;20958;-67
2021/12/15 08:25:11;;;;;;;0.40;0.30;;;;;;;9.10;100.00;102373.63;5056427;28;20440;-70
2021/12/15 08:27:39;;;;;;;0.40;0.30;;;;;;;9.14;100.00;102382.91;5056427;28;20805;-67
2021/12/15 08:30:12;;;;;;;0.50;0.40;;;;;;;9.19;100.00;102380.25;5056005;28;20490;-67
2021/12/15 08:32:39;;;;;;;0.40;0.30;;;;;;;9.23;100.00;102369.78;5056701;28;20414;-68
2021/12/15 08:35:07;;;;;;;0.40;0.20;;;;;;;9.27;100.00;102376.34;5056507;28;20446;-68
2021/12/15 08:37:34;;;;;;;0.40;0.30;;;;;;;9.28;100.00;102373.38;5056114;28;20453;-68
2021/12/15 08:40:01;;;;;;;0.40;0.30;;;;;;;9.32;100.00;102371.81;5056222;28;20462;-68
2021/12/15 08:42:29;;;;;;;0.40;0.30;;;;;;;9.35;100.00;102379.44;5056049;28;20492;-67
2021/12/15 08:44:56;;;;;;;0.40;0.30;;;;;;;9.32;100.00;102385.31;5056313;28;20446;-68
2021/12/15 08:47:24;;;;;;;0.40;0.30;;;;;;;9.34;100.00;102388.63;5056346;28;20438;-68
2021/12/15 08:49:53;;;;;;;0.40;0.30;;;;;;;9.39;100.00;102385.16;5056101;28;20619;-68
2021/12/15 08:52:20;;;;;;;0.40;0.30;;;;;;;9.45;100.00;102381.47;5056146;28;20473;-68
2021/12/15 08:54:47;;;;;;;0.40;0.30;;;;;;;9.50;100.00;102383.41;5056131;28;20438;-69
2021/12/15 08:57:14;;;;;;;0.40;0.30;;;;;;;9.48;100.00;102382.88;5055845;28;21009;-69
2021/12/15 08:59:41;;;;;;;0.40;0.20;;;;;;;9.54;100.00;102387.25;5055965;28;20503;-69
2021/12/15 09:02:08;;;;;;;0.40;0.30;;;;;;;9.61;100.00;102387.91;5055700;28;20497;-69
2021/12/15 09:04:36;;;;;;;0.40;0.30;;;;;;;9.60;100.00;102391.66;5055572;28;20971;-69
2021/12/15 09:07:03;;;;;;;0.50;0.30;;;;;;;9.62;100.00;102389.53;5055818;28;20442;-69
2021/12/15 09:09:30;;;;;;;0.40;0.30;;;;;;;9.63;100.00;102396.59;5055140;28;20575;-69
2021/12/15 09:11:57;;;;;;;0.40;0.30;;;;;;;9.67;100.00;102395.03;5055419;28;20495;-69
2021/12/15 09:14:24;;;;;;;0.40;0.30;;;;;;;9.67;100.00;102397.72;5055472;28;20499;-69
2021/12/15 09:16:54;;;;;;;0.40;0.30;;;;;;;9.71;100.00;102396.16;5055438;28;20813;-69
2021/12/15 09:19:20;;;;;;;0.40;0.30;;;;;;;9.69;100.00;102387.47;5055605;28;20511;-69
2021/12/15 09:21:51;;;;;;;0.40;0.30;;;;;;;9.67;100.00;102396.91;5055667;28;20504;-69
2021/12/15 09:24:19;;;;;;;0.40;0.27;;;;;;;9.70;100.00;102391.81;5055579;28;20842;-72
2021/12/15 09:26:46;;;;;;;0.40;0.20;;;;;;;9.73;100.00;102391.31;5055185;28;20454;-69
2021/12/15 09:29:12;;;;;;;0.40;0.30;;;;;;;9.72;100.00;102386.97;5055293;28;20486;-68
2021/12/15 09:31:40;;;;;;;0.40;0.30;;;;;;;9.74;100.00;102392.97;5055456;28;20430;-69
2021/12/15 09:34:10;;;;;;;0.40;0.30;;;;;;;9.70;100.00;102396.41;5055395;28;20442;-68
2021/12/15 09:36:37;;;;;;;0.40;0.30;;;;;;;9.71;100.00;102396.16;5055226;28;20481;-73
2021/12/15 09:39:10;;;;;;;0.40;0.30;;;;;;;9.67;100.00;102392.31;5055214;28;20426;-69
2021/12/15 09:41:38;;;;;;;0.40;0.30;;;;;;;9.69;100.00;102384.75;5055302;28;20806;-70
2021/12/15 09:44:09;;;;;;;0.40;0.30;;;;;;;9.71;100.00;102387.22;5055151;28;20572;-70
2021/12/15 09:47:04;;;;;;;0.40;0.20;;;;;;;9.74;100.00;102387.56;5055136;28;20446;-69
2021/12/15 10:02:00;;;;;;;0.40;0.30;;;;;;;9.81;100.00;102380.03;5054934;28;20899;-69
2021/12/15 10:03:34;;;;;;;0.40;0.30;;;;;;;9.84;100.00;102368.72;5054671;28;20512;-69
2021/12/15 10:06:17;;;;;;;1.87;1.77;;;;;;;9.82;100.00;102372.75;5054827;28;20434;-69
2021/12/15 10:19:51;;;;;;;0.40;0.30;;;;;;;9.86;100.00;102380.09;5054242;28;20488;-70
2021/12/15 10:22:29;;;;;;;0.40;0.30;;;;;;;9.89;100.00;102369.84;5053601;28;20529;-70
2021/12/15 10:24:58;;;;;;;0.40;0.20;;;;;;;9.93;100.00;102374.53;5054449;28;20433;-70
2021/12/15 10:27:40;;;;;;;2.30;1.80;;;;;;;9.97;100.00;102375.66;5054460;28;20827;-69
2021/12/15 10:30:13;;;;;;;0.40;0.30;;;;;;;10.00;100.00;102374.31;5053889;28;20477;-70
2021/12/15 10:32:42;;;;;;;0.40;0.30;;;;;;;10.02;100.00;102369.47;5054376;28;20427;-70
2021/12/15 10:35:12;;;;;;;0.40;0.30;;;;;;;10.02;100.00;102378.41;5054273;28;20434;-69
2021/12/15 10:37:40;;;;;;;0.87;0.87;;;;;;;9.92;100.00;102372.06;5053944;28;20466;-69
2021/12/15 10:40:18;;;;;;;0.40;0.27;;;;;;;9.94;100.00;102380.75;5054047;28;20465;-70
2021/12/15 10:42:47;;;;;;;0.40;0.30;;;;;;;9.97;100.00;102372.94;5054053;28;20426;-70
2021/12/15 10:45:16;;;;;;;0.40;0.30;;;;;;;10.03;100.00;102374.63;5053820;28;20450;-73
2021/12/15 10:47:45;;;;;;;0.40;0.30;;;;;;;10.00;100.00;102374.31;5053997;28;20446;-71
2021/12/15 10:50:15;;;;;;;0.50;0.30;;;;;;;9.98;100.00;102373.75;5053491;28;20610;-70
2021/12/15 10:52:54;;;;;;;0.77;0.77;;;;;;;9.99;100.00;102373.50;5054567;28;20442;-69
2021/12/15 10:55:20;;;;;;;0.60;0.30;;;;;;;9.95;100.00;102372.38;5054183;28;20446;-70
2021/12/15 10:57:49;;;;;;;0.40;0.30;;;;;;;10.01;100.00;102375.97;5053463;28;20451;-69
2021/12/15 11:00:19;;;;;;;0.40;0.30;;;;;;;10.09;100.00;102378.22;5053456;28;20509;-69
2021/12/15 11:02:46;;;;;;;0.40;0.30;;;;;;;10.04;100.00;102370.84;5053791;28;20448;-69
2021/12/15 11:05:16;;;;;;;0.40;0.30;;;;;;;10.09;100.00;102376.34;5053589;28;20482;-69
2021/12/15 11:07:45;;;;;;;0.40;0.30;;;;;;;10.12;100.00;102380.41;5052937;28;20478;-69
2021/12/15 11:10:15;;;;;;;0.40;0.20;;;;;;;10.15;100.00;102370.97;5052816;28;20543;-70
2021/12/15 11:12:45;;;;;;;0.40;0.30;;;;;;;10.11;100.00;102370.66;5053606;28;20446;-69
2021/12/15 11:15:18;;;;;;;0.40;0.30;;;;;;;10.16;100.00;102373.44;5053518;28;20433;-69
2021/12/15 11:17:47;;;;;;;0.40;0.30;;;;;;;10.08;100.00;102371.97;5053312;28;20423;-69
2021/12/15 11:20:17;;;;;;;1.13;1.13;;;;;;;10.17;100.00;102372.34;5053513;28;20462;-69
2021/12/15 11:22:51;;;;;;;0.40;0.30;;;;;;;10.17;100.00;102374.25;5053629;28;20500;-69
2021/12/15 11:25:22;;;;;;;0.40;0.30;;;;;;;10.20;100.00;102365.63;5053605;28;20481;-69
2021/12/15 11:27:52;;;;;;;0.60;0.40;;;;;;;10.28;100.00;102355.19;5053646;28;20500;-69
2021/12/15 11:30:28;;;;;;;0.40;0.30;;;;;;;10.31;100.00;102360.09;5053362;28;20486;-69
2021/12/15 11:32:58;;;;;;;0.40;0.30;;;;;;;10.35;100.00;102358.47;5053229;28;20430;-69
2021/12/15 11:35:27;;;;;;;0.40;0.30;;;;;;;10.39;100.00;102344.44;5052924;28;20492;-69
2021/12/15 11:37:59;;;;;;;0.40;0.30;;;;;;;10.42;100.00;102355.59;5052964;28;20824;-69
2021/12/15 11:40:30;;;;;;;0.40;0.30;;;;;;;10.40;100.00;102351.47;5052828;28;20528;-68
2021/12/15 11:42:57;;;;;;;0.40;0.20;;;;;;;10.42;100.00;102347.47;5053266;28;20508;-70
2021/12/15 11:45:26;;;;;;;0.40;0.30;;;;;;;10.46;100.00;102354.00;5053027;28;21005;-69
2021/12/15 11:48:11;;;;;;;0.40;0.30;;;;;;;10.50;100.00;102340.75;5052873;28;20818;-69
2021/12/15 11:50:40;;;;;;;0.40;0.30;;;;;;;10.48;100.00;102349.13;5052749;28;20490;-69
2021/12/15 11:53:06;;;;;;;0.40;0.30;;;;;;;10.51;100.00;102340.50;5053155;28;20830;-69
2021/12/15 11:55:34;;;;;;;0.40;0.30;;;;;;;10.54;100.00;102326.44;5053190;28;20496;-69
2021/12/15 11:58:00;;;;;;;0.50;0.40;;;;;;;10.57;100.00;102328.63;5053063;28;20538;-69
2021/12/15 12:00:30;;;;;;;0.40;0.30;;;;;;;10.65;100.00;102321.91;5052620;28;20473;-69
2021/12/15 12:02:59;;;;;;;0.40;0.30;;;;;;;10.71;100.00;102331.72;5052676;28;20438;-69
2021/12/15 12:05:28;;;;;;;0.40;0.23;;;;;;;10.72;100.00;102344.22;5052710;28;20430;-69
2021/12/15 12:07:58;;;;;;;0.40;0.30;;;;;;;10.77;100.00;102338.00;5052955;28;20511;-69
2021/12/15 12:10:30;;;;;;;0.40;0.30;;;;;;;10.76;100.00;102337.19;5052528;28;20492;-69
2021/12/15 12:13:05;;;;;;;0.40;0.30;;;;;;;10.79;100.00;102338.56;5052722;28;20434;-71
2021/12/15 12:15:36;;;;;;;0.40;0.20;;;;;;;10.82;100.00;102333.44;5052951;28;20426;-69
2021/12/15 12:18:06;;;;;;;0.40;0.30;;;;;;;10.87;100.00;102332.66;5052934;28;20431;-69
2021/12/15 12:20:35;;;;;;;0.40;0.30;;;;;;;10.82;100.00;102333.44;5052602;28;20579;-69
2021/12/15 12:23:04;;;;;;;1.37;1.27;;;;;;;10.86;100.00;102322.91;5052618;28;20871;-69
2021/12/15 12:25:38;;;;;;;0.40;0.30;;;;;;;10.81;100.00;102331.81;5052840;28;20446;-69
2021/12/15 12:28:09;;;;;;;0.40;0.30;;;;;;;10.76;100.00;102329.06;5052832;28;20837;-71
2021/12/15 12:30:40;;;;;;;0.40;0.30;;;;;;;10.78;100.00;102326.91;5052366;28;21084;-71